Oceanview, Delaware
Current Conditions -  °F | °C
As of 6:53 PM on Sunday 21 Dec 2014 (Local Time) from KOXB Reporting Station
Haze Haze  
Wind Chill: 26°   Ceiling: Unl
Heat Index: 26°   Visibility: 4mi
Dew Point: 25°   Wind: 0mph
Humidity: 96%   Direction: NA
Pressure: 30.33"   Gusts: NA
Location:  38.5606°N, 75.0865°W
Report Text: KOXB 212353Z AUTO 00000KT 4SM BR CLR M03/M04 A3033 RMK AO2 SLP270 T10331039 10061 21033 50014 TSNO
Loading
Personal Weather Stations






























Interactive Weather Map New forecast layout! Learn more

10-Day Weather Forecast

Advertisements
Track Severe Weather on mobile